Íslenskir flugvellir

Veldu flugvelli í þeirri röð sem þeir eiga að birtast og styddu á hnappinn

Uppfært síðast 23.06.2024 - kl. 09:18

SIGMET síðustu 6 klst.

Engin SIGMET skeyti bárust síðustu 6 klst.

Vestmannaeyjar

METAR síðustu 3 klst

TímiSkeyti
2024-06-23 08.47METAR BIVM 230847Z 24018KT 3000 OVC030 08/07 Q0997

TAF

TAFBIVM2024-06-23 09.02Z23101723018KT 4900 -DZ BR OVC015 PROB40 TEMPO 2310/2317 0800 DZ FG VV002

Allur vindur er réttvísandi bæði í Metar og frá sjálfvirkum veðurstöðvum




Aðrir tengdir vefir



Þetta vefsvæði byggir á Eplica